createdAt,value
2018-12-02T00:00:47.352Z,6.72
2018-12-02T00:03:15.729Z,6.73
2018-12-02T00:05:44.128Z,6.76
2018-12-02T00:08:12.481Z,6.74
2018-12-02T00:10:40.806Z,6.75
2018-12-02T00:13:09.126Z,6.76
2018-12-02T00:15:38.505Z,6.76
2018-12-02T00:18:08.747Z,6.77
2018-12-02T00:20:37.417Z,6.83
2018-12-02T00:23:06.683Z,6.78
2018-12-02T00:25:35.113Z,6.78
2018-12-02T00:28:03.690Z,6.76
2018-12-02T00:30:32.241Z,6.78
2018-12-02T00:33:00.588Z,6.80
2018-12-02T00:35:29.014Z,6.78
2018-12-02T00:38:01.310Z,6.82
2018-12-02T00:40:29.909Z,6.80
2018-12-02T00:42:59.253Z,6.81
2018-12-02T00:45:28.698Z,6.82
2018-12-02T00:47:57.017Z,6.82
2018-12-02T00:50:25.370Z,6.79
2018-12-02T00:52:55.728Z,6.81
2018-12-02T00:55:25.114Z,6.80
2018-12-02T00:57:53.425Z,6.83
2018-12-02T01:00:21.720Z,6.85
2018-12-02T01:02:50.708Z,6.86
2018-12-02T01:05:21.721Z,6.85
2018-12-02T01:07:50.820Z,6.87
2018-12-02T01:10:21.853Z,6.87
2018-12-02T01:12:51.957Z,6.89
2018-12-02T01:15:21.610Z,6.92
2018-12-02T01:17:50.049Z,6.91
2018-12-02T01:20:19.255Z,6.92
2018-12-02T01:22:47.613Z,6.93
2018-12-02T01:25:16.002Z,6.94
2018-12-02T01:27:44.893Z,6.90
2018-12-02T01:30:20.017Z,6.94
2018-12-02T01:32:48.437Z,6.99
2018-12-02T01:35:17.464Z,6.99
2018-12-02T01:37:45.886Z,7.01
2018-12-02T01:40:16.333Z,7.01
2018-12-02T01:42:44.677Z,7.05
2018-12-02T01:45:18.048Z,7.02
2018-12-02T01:47:46.378Z,6.99
2018-12-02T01:50:15.594Z,6.94
2018-12-02T01:52:44.661Z,6.87
2018-12-02T01:55:12.977Z,6.86
2018-12-02T01:57:41.326Z,6.86
2018-12-02T02:00:19.300Z,6.83
2018-12-02T02:02:47.664Z,6.84
2018-12-02T02:05:16.821Z,6.86
2018-12-02T02:07:45.173Z,6.86
2018-12-02T02:10:16.305Z,6.86
2018-12-02T02:12:44.629Z,6.94
2018-12-02T02:15:15.731Z,6.86
2018-12-02T02:17:44.129Z,6.86
2018-12-02T02:20:16.288Z,6.86
2018-12-02T02:22:44.837Z,6.89
2018-12-02T02:25:14.886Z,6.91
2018-12-02T02:27:44.269Z,6.93
2018-12-02T02:30:15.471Z,6.95
2018-12-02T02:32:43.797Z,7.00
2018-12-02T02:35:12.339Z,6.98
2018-12-02T02:37:40.966Z,6.97
2018-12-02T02:40:13.257Z,6.96
2018-12-02T02:42:41.538Z,6.96
2018-12-02T02:45:10.695Z,6.98
2018-12-02T02:47:39.653Z,6.97
2018-12-02T02:50:12.784Z,6.96
2018-12-02T02:52:41.612Z,6.97
2018-12-02T02:55:09.942Z,7.00
2018-12-02T02:57:38.241Z,6.95
2018-12-02T03:00:11.931Z,6.96
2018-12-02T03:02:40.270Z,6.98
2018-12-02T03:05:09.376Z,6.93
2018-12-02T03:07:37.722Z,6.94
2018-12-02T03:10:08.399Z,6.93
2018-12-02T03:12:36.724Z,6.88
2018-12-02T03:15:06.089Z,6.91
2018-12-02T03:17:34.369Z,6.94
2018-12-02T03:20:02.718Z,6.91
2018-12-02T03:22:31.018Z,6.93
2018-12-02T03:24:59.329Z,6.94
2018-12-02T03:27:27.622Z,6.89
2018-12-02T03:29:55.924Z,6.88
2018-12-02T03:32:24.239Z,6.89
2018-12-02T03:34:52.550Z,6.90
2018-12-02T03:37:20.851Z,6.89
2018-12-02T03:39:49.190Z,6.90
2018-12-02T03:42:17.494Z,6.94
2018-12-02T03:44:46.057Z,6.95
2018-12-02T03:47:14.350Z,6.89
2018-12-02T03:49:42.666Z,6.90
2018-12-02T03:52:11.402Z,6.85
2018-12-02T03:54:39.942Z,6.83
2018-12-02T03:57:08.412Z,6.81
2018-12-02T03:59:36.873Z,6.85
2018-12-02T04:02:05.396Z,6.83
2018-12-02T04:04:33.724Z,6.86
2018-12-02T04:07:02.354Z,6.83
2018-12-02T04:09:30.803Z,6.82
2018-12-02T04:11:59.298Z,6.80
2018-12-02T04:14:27.773Z,6.80
2018-12-02T04:16:56.097Z,6.84
2018-12-02T04:19:24.401Z,6.88
2018-12-02T04:21:52.754Z,6.80
2018-12-02T04:24:21.181Z,6.82
2018-12-02T04:26:50.194Z,6.87
2018-12-02T04:29:18.658Z,6.85
2018-12-02T04:31:46.977Z,6.88
2018-12-02T04:34:15.321Z,6.91
2018-12-02T04:36:44.115Z,6.90
2018-12-02T04:39:13.486Z,6.93
2018-12-02T04:41:42.106Z,6.93
2018-12-02T04:44:10.747Z,6.95
2018-12-02T04:46:39.098Z,7.00
2018-12-02T04:49:07.534Z,7.05
2018-12-02T04:51:36.033Z,7.02
2018-12-02T04:54:04.513Z,7.03
2018-12-02T04:56:33.002Z,7.04
2018-12-02T04:59:01.457Z,7.04
2018-12-02T05:01:29.957Z,7.05
2018-12-02T05:03:58.434Z,7.02
2018-12-02T05:06:26.774Z,7.01
2018-12-02T05:08:55.898Z,7.04
2018-12-02T05:11:24.222Z,7.05
2018-12-02T05:13:52.522Z,7.07
2018-12-02T05:16:20.847Z,7.06
2018-12-02T05:18:49.137Z,7.06
2018-12-02T05:21:17.456Z,7.05
2018-12-02T05:23:45.757Z,7.07
2018-12-02T05:26:14.077Z,7.10
2018-12-02T05:28:42.370Z,7.08
2018-12-02T05:31:10.669Z,7.07
2018-12-02T05:33:38.982Z,7.07
2018-12-02T05:36:07.274Z,7.07
2018-12-02T05:38:35.645Z,7.06
2018-12-02T05:41:04.004Z,7.06
2018-12-02T05:43:32.628Z,7.08
2018-12-02T05:46:00.921Z,7.10
2018-12-02T05:48:29.573Z,7.15
2018-12-02T05:50:57.890Z,7.14
2018-12-02T05:53:26.570Z,7.13
2018-12-02T05:55:55.010Z,7.09
2018-12-02T05:58:23.509Z,7.10
2018-12-02T06:00:51.975Z,7.14
2018-12-02T06:03:20.302Z,7.15
2018-12-02T06:05:48.933Z,7.24
2018-12-02T06:08:17.284Z,7.21
2018-12-02T06:10:45.916Z,7.23
2018-12-02T06:13:14.229Z,7.20
2018-12-02T06:15:42.501Z,7.24
2018-12-02T06:18:10.813Z,7.26
2018-12-02T06:20:39.113Z,7.37
2018-12-02T06:23:07.429Z,7.34
2018-12-02T06:25:35.751Z,7.31
2018-12-02T06:28:04.122Z,7.29
2018-12-02T06:30:32.406Z,7.31
2018-12-02T06:33:01.877Z,7.34
2018-12-02T06:35:30.197Z,7.30
2018-12-02T06:37:59.623Z,7.35
2018-12-02T06:40:28.638Z,7.35
2018-12-02T06:42:56.990Z,7.42
2018-12-02T06:45:25.313Z,7.40
2018-12-02T06:47:53.633Z,7.42
2018-12-02T06:50:23.283Z,7.45
2018-12-02T06:52:52.162Z,7.45
2018-12-02T06:55:23.922Z,7.45
2018-12-02T06:57:56.010Z,7.47
2018-12-02T07:02:39.029Z,7.47
2018-12-02T07:05:08.438Z,7.46
2018-12-02T07:07:36.709Z,7.48
2018-12-02T07:10:05.603Z,7.46
2018-12-02T07:12:33.925Z,7.47
2018-12-02T07:15:02.261Z,7.45
2018-12-02T07:17:30.557Z,7.49
2018-12-02T07:19:58.866Z,7.48
2018-12-02T07:22:27.890Z,7.52
2018-12-02T07:24:56.278Z,7.54
2018-12-02T07:27:24.605Z,7.58
2018-12-02T07:29:52.957Z,7.59
2018-12-02T07:32:21.258Z,7.62
2018-12-02T07:34:49.589Z,7.61
2018-12-02T07:37:19.309Z,7.64
2018-12-02T07:39:58.746Z,7.65
2018-12-02T07:42:27.078Z,7.69
2018-12-02T07:44:55.406Z,7.74
2018-12-02T07:47:23.729Z,7.76
2018-12-02T07:49:52.362Z,7.72
2018-12-02T07:52:20.665Z,7.72
2018-12-02T07:54:49.317Z,7.69
2018-12-02T07:57:17.802Z,7.73
2018-12-02T07:59:46.285Z,7.75
2018-12-02T08:02:14.602Z,7.81
2018-12-02T08:04:43.274Z,7.82
2018-12-02T08:07:11.701Z,7.84
2018-12-02T08:09:40.186Z,7.86
2018-12-02T08:12:08.525Z,7.91
2018-12-02T08:14:36.868Z,7.99
2018-12-02T08:17:05.683Z,8.02
2018-12-02T08:19:33.986Z,8.08
2018-12-02T08:22:02.618Z,8.12
2018-12-02T08:24:30.928Z,8.15
2018-12-02T08:26:59.585Z,8.25
2018-12-02T08:29:28.638Z,8.23
2018-12-02T08:31:56.969Z,8.34
2018-12-02T08:34:25.290Z,8.35
2018-12-02T08:36:54.031Z,8.40
2018-12-02T08:39:22.473Z,8.37
2018-12-02T08:41:50.998Z,8.45
2018-12-02T08:44:19.438Z,8.61
2018-12-02T08:46:47.942Z,8.49
2018-12-02T08:49:16.410Z,8.57
2018-12-02T08:51:44.920Z,8.66
2018-12-02T08:54:13.398Z,8.63
2018-12-02T08:56:41.878Z,8.66
2018-12-02T08:59:10.342Z,8.57
2018-12-02T09:01:38.686Z,8.56
2018-12-02T09:04:07.314Z,8.53
2018-12-02T09:06:35.714Z,8.65
2018-12-02T09:09:06.098Z,8.65
2018-12-02T09:11:34.458Z,8.67
2018-12-02T09:14:02.765Z,8.58
2018-12-02T09:16:31.272Z,8.67
2018-12-02T09:18:59.733Z,8.72
2018-12-02T09:21:28.230Z,8.77
2018-12-02T09:23:56.533Z,8.81
2018-12-02T09:26:24.853Z,8.76
2018-12-02T09:28:53.181Z,8.78
2018-12-02T09:31:21.650Z,8.84
2018-12-02T09:33:50.626Z,8.85
2018-12-02T09:36:19.130Z,8.91
2018-12-02T09:38:47.592Z,8.92
2018-12-02T09:41:16.095Z,8.92
2018-12-02T09:43:44.541Z,8.93
2018-12-02T09:46:13.055Z,8.94
2018-12-02T09:48:41.473Z,9.01
2018-12-02T09:51:09.773Z,9.00
2018-12-02T09:53:38.149Z,9.02
2018-12-02T09:56:07.103Z,9.03
2018-12-02T09:58:35.429Z,9.12
2018-12-02T10:01:03.798Z,9.14
2018-12-02T10:03:32.129Z,9.22
2018-12-02T10:06:00.474Z,9.28
2018-12-02T10:08:28.806Z,9.34
2018-12-02T10:10:57.345Z,9.43
2018-12-02T10:13:25.842Z,9.45
2018-12-02T10:15:54.309Z,9.51
2018-12-02T10:18:23.328Z,9.60
2018-12-02T10:20:51.646Z,9.65
2018-12-02T10:23:19.974Z,9.68
2018-12-02T10:25:48.297Z,9.89
2018-12-02T10:28:16.621Z,9.90
2018-12-02T10:30:44.915Z,9.91
2018-12-02T10:33:13.266Z,9.99
2018-12-02T10:35:41.565Z,10.09
2018-12-02T10:38:09.895Z,10.17
2018-12-02T10:40:38.589Z,10.17
2018-12-02T10:43:07.407Z,10.16
2018-12-02T10:45:35.770Z,10.13
2018-12-02T10:48:05.793Z,10.23
2018-12-02T10:50:35.097Z,10.41
2018-12-02T10:53:07.206Z,10.45
2018-12-02T10:55:42.301Z,10.55
2018-12-02T10:58:13.149Z,10.48
2018-12-02T11:01:52.202Z,10.48
2018-12-02T11:04:20.538Z,10.70
2018-12-02T11:06:48.837Z,10.75
2018-12-02T11:09:17.157Z,10.79
2018-12-02T11:11:45.459Z,10.86
2018-12-02T11:14:13.786Z,10.83
2018-12-02T11:16:42.074Z,10.86
2018-12-02T11:19:10.398Z,10.95
2018-12-02T11:21:38.685Z,11.01
2018-12-02T11:24:06.989Z,10.91
2018-12-02T11:26:35.285Z,10.79
2018-12-02T11:29:03.613Z,10.85
2018-12-02T11:31:31.905Z,10.95
2018-12-02T11:34:00.234Z,11.01
2018-12-02T11:36:28.530Z,11.16
2018-12-02T11:38:56.850Z,11.38
2018-12-02T11:41:25.141Z,11.33
2018-12-02T11:43:53.463Z,11.39
2018-12-02T11:46:21.797Z,11.46
2018-12-02T11:48:50.111Z,11.54
2018-12-02T11:51:18.443Z,11.37
2018-12-02T11:53:46.741Z,11.27
2018-12-02T11:56:15.527Z,11.30
2018-12-02T11:58:44.018Z,11.24
2018-12-02T12:01:12.497Z,11.35
2018-12-02T12:03:40.949Z,11.43
2018-12-02T12:06:09.447Z,11.48
2018-12-02T12:08:37.906Z,11.48
2018-12-02T12:11:06.330Z,11.49
2018-12-02T12:13:34.626Z,11.49
2018-12-02T12:16:03.391Z,11.58
2018-12-02T12:18:31.850Z,11.68
2018-12-02T12:21:00.336Z,11.80
2018-12-02T12:23:28.794Z,11.83
2018-12-02T12:25:57.298Z,11.85
2018-12-02T12:28:25.761Z,11.89
2018-12-02T12:30:54.270Z,11.85
2018-12-02T12:33:23.122Z,11.87
2018-12-02T12:35:52.286Z,11.74
2018-12-02T12:38:20.609Z,11.79
2018-12-02T12:40:50.591Z,11.78
2018-12-02T12:43:25.356Z,11.71
2018-12-02T12:45:53.702Z,11.81
2018-12-02T12:48:22.045Z,11.76
2018-12-02T12:50:50.354Z,11.70
2018-12-02T12:53:18.669Z,11.73
2018-12-02T12:55:50.826Z,11.74
2018-12-02T12:58:16.787Z,11.72
2018-12-02T13:00:45.115Z,11.73
2018-12-02T13:03:13.447Z,11.67
2018-12-02T13:05:41.798Z,11.65
2018-12-02T13:08:11.314Z,11.69
2018-12-02T13:10:39.651Z,11.66
2018-12-02T13:13:07.998Z,11.78
2018-12-02T13:15:36.424Z,11.87
2018-12-02T13:18:07.622Z,11.86
2018-12-02T13:20:41.886Z,11.81
2018-12-02T13:23:10.209Z,11.83
2018-12-02T13:25:38.608Z,11.98
2018-12-02T13:28:07.592Z,12.03
2018-12-02T13:30:35.978Z,11.95
2018-12-02T13:33:04.317Z,11.97
2018-12-02T13:35:32.648Z,12.03
2018-12-02T13:38:00.970Z,12.04
2018-12-02T13:40:29.267Z,12.16
2018-12-02T13:43:00.943Z,12.13
2018-12-02T13:45:30.153Z,12.04
2018-12-02T13:47:58.517Z,11.95
2018-12-02T13:50:26.877Z,11.99
2018-12-02T13:52:56.145Z,11.92
2018-12-02T13:55:26.714Z,11.85
2018-12-02T13:57:55.074Z,11.89
2018-12-02T14:00:25.252Z,11.80
2018-12-02T14:02:57.730Z,11.69
2018-12-02T14:05:26.074Z,11.73
2018-12-02T14:07:54.409Z,11.66
2018-12-02T14:10:22.774Z,11.62
2018-12-02T14:12:56.252Z,11.63
2018-12-02T14:17:33.201Z,11.68
2018-12-02T14:20:01.535Z,11.76
2018-12-02T14:22:29.877Z,11.75
2018-12-02T14:25:02.774Z,11.79
2018-12-02T14:27:26.558Z,11.89
2018-12-02T14:29:56.077Z,11.90
2018-12-02T14:32:25.521Z,11.98
2018-12-02T14:34:53.850Z,11.98
2018-12-02T14:37:22.153Z,11.97
2018-12-02T14:39:50.456Z,11.95
2018-12-02T14:42:19.337Z,11.96
2018-12-02T14:44:47.662Z,11.92
2018-12-02T14:47:16.011Z,11.96
2018-12-02T14:49:44.354Z,11.91
2018-12-02T14:52:12.689Z,11.92
2018-12-02T14:54:40.969Z,11.91
2018-12-02T14:57:09.537Z,11.90
2018-12-02T14:59:37.861Z,11.90
2018-12-02T15:02:06.553Z,11.90
2018-12-02T15:04:34.982Z,11.86
2018-12-02T15:07:03.478Z,11.86
2018-12-02T15:09:31.958Z,11.91
2018-12-02T15:12:00.490Z,11.94
2018-12-02T15:14:28.893Z,11.94
2018-12-02T15:16:57.403Z,11.89
2018-12-02T15:19:25.850Z,11.87
2018-12-02T15:21:54.432Z,11.76
2018-12-02T15:24:22.731Z,11.78
2018-12-02T15:26:51.074Z,11.80
2018-12-02T15:29:19.373Z,11.84
2018-12-02T15:31:47.699Z,11.88
2018-12-02T15:34:15.998Z,11.91
2018-12-02T15:36:44.330Z,11.84
2018-12-02T15:39:12.721Z,11.72
2018-12-02T15:41:41.050Z,11.75
2018-12-02T15:44:09.353Z,11.68
2018-12-02T15:46:37.686Z,11.66
2018-12-02T15:49:06.068Z,11.68
2018-12-02T15:51:34.366Z,11.65
2018-12-02T15:54:02.702Z,11.64
2018-12-02T15:56:31.042Z,11.61
2018-12-02T15:58:59.541Z,11.63
2018-12-02T16:01:28.002Z,11.62
2018-12-02T16:03:56.505Z,11.61
2018-12-02T16:06:24.970Z,11.65
2018-12-02T16:08:53.298Z,11.67
2018-12-02T16:11:21.917Z,11.66
2018-12-02T16:13:50.946Z,11.71
2018-12-02T16:16:19.274Z,11.68
2018-12-02T16:18:47.589Z,11.71
2018-12-02T16:21:16.010Z,11.72
2018-12-02T16:23:44.594Z,11.81
2018-12-02T16:26:12.926Z,11.80
2018-12-02T16:28:41.314Z,11.82
2018-12-02T16:31:09.609Z,11.78
2018-12-02T16:33:37.967Z,11.78
2018-12-02T16:36:06.814Z,11.72
2018-12-02T16:38:35.125Z,11.65
2018-12-02T16:41:03.433Z,11.65
2018-12-02T16:43:31.760Z,11.65
2018-12-02T16:46:00.069Z,11.62
2018-12-02T16:48:28.386Z,11.59
2018-12-02T16:50:56.697Z,11.67
2018-12-02T16:53:27.186Z,11.65
2018-12-02T16:56:07.473Z,11.62
2018-12-02T16:59:45.657Z,11.57
2018-12-02T17:02:13.985Z,11.56
2018-12-02T17:04:42.282Z,11.55
2018-12-02T17:07:10.606Z,11.56
2018-12-02T17:09:38.901Z,11.55
2018-12-02T17:12:07.310Z,11.56
2018-12-02T17:14:38.714Z,11.55
2018-12-02T17:17:03.990Z,11.51
2018-12-02T17:19:32.343Z,11.60
2018-12-02T17:22:00.641Z,11.54
2018-12-02T17:24:28.981Z,11.54
2018-12-02T17:26:57.289Z,11.61
2018-12-02T17:29:25.633Z,11.72
2018-12-02T17:32:00.230Z,11.67
2018-12-02T17:34:28.545Z,11.68
2018-12-02T17:36:56.847Z,11.72
2018-12-02T17:39:27.853Z,11.68
2018-12-02T17:42:00.724Z,11.66
2018-12-02T17:44:29.361Z,11.79
2018-12-02T17:46:57.663Z,11.74
2018-12-02T17:49:25.993Z,11.80
2018-12-02T17:51:54.345Z,11.78
2018-12-02T17:54:22.673Z,11.75
2018-12-02T17:56:50.990Z,11.78
2018-12-02T17:59:19.343Z,11.82
2018-12-02T18:01:47.637Z,11.85
2018-12-02T18:04:16.307Z,11.88
2018-12-02T18:06:44.766Z,11.89
2018-12-02T18:09:14.281Z,11.91
2018-12-02T18:11:42.771Z,11.93
2018-12-02T18:14:11.257Z,11.89
2018-12-02T18:16:39.728Z,11.97
2018-12-02T18:19:08.230Z,11.92
2018-12-02T18:21:37.198Z,12.00
2018-12-02T18:24:05.926Z,11.89
2018-12-02T18:26:34.240Z,11.85
2018-12-02T18:29:02.560Z,11.81
2018-12-02T18:31:30.893Z,11.85
2018-12-02T18:33:59.213Z,11.87
2018-12-02T18:36:31.413Z,11.83
2018-12-02T18:38:59.733Z,11.80
2018-12-02T18:41:31.302Z,11.77
2018-12-02T18:43:59.624Z,11.72
2018-12-02T18:46:27.974Z,11.69
2018-12-02T18:48:56.285Z,11.66
2018-12-02T18:51:24.618Z,11.61
2018-12-02T18:53:52.934Z,11.57
2018-12-02T18:56:21.329Z,11.51
2018-12-02T18:58:49.641Z,11.51
2018-12-02T19:01:18.250Z,11.49
2018-12-02T19:03:46.997Z,11.52
2018-12-02T19:06:15.530Z,11.43
2018-12-02T19:08:43.978Z,11.42
2018-12-02T19:11:12.482Z,11.42
2018-12-02T19:13:43.784Z,11.55
2018-12-02T19:16:09.889Z,11.56
2018-12-02T19:18:38.501Z,11.60
2018-12-02T19:21:12.045Z,11.64
2018-12-02T19:23:40.505Z,11.67
2018-12-02T19:26:08.861Z,11.68
2018-12-02T19:28:37.233Z,11.71
2018-12-02T19:31:06.017Z,11.71
2018-12-02T19:33:34.950Z,11.74
2018-12-02T19:36:09.374Z,11.78
2018-12-02T19:38:37.734Z,11.78
2018-12-02T19:41:06.729Z,11.77
2018-12-02T19:43:35.474Z,11.78
2018-12-02T19:46:03.858Z,11.78
2018-12-02T19:48:32.301Z,11.76
2018-12-02T19:51:00.641Z,11.77
2018-12-02T19:53:28.934Z,11.76
2018-12-02T19:55:57.274Z,11.75
2018-12-02T19:58:25.577Z,11.72
2018-12-02T20:00:56.217Z,11.69
2018-12-02T20:03:24.542Z,11.71
2018-12-02T20:05:52.864Z,11.68
2018-12-02T20:08:21.181Z,11.70
2018-12-02T20:10:51.158Z,11.72
2018-12-02T20:13:20.417Z,11.72
2018-12-02T20:15:55.134Z,11.65
2018-12-02T20:18:23.634Z,11.66
2018-12-02T20:20:54.402Z,11.68
2018-12-02T20:23:28.990Z,11.66
2018-12-02T20:25:59.406Z,11.66
2018-12-02T20:28:40.661Z,11.67
2018-12-02T20:31:11.713Z,11.69
2018-12-02T20:33:40.074Z,11.67
2018-12-02T20:36:08.622Z,11.72
2018-12-02T20:38:37.081Z,11.66
2018-12-02T20:41:06.613Z,11.68
2018-12-02T20:43:35.578Z,11.60
2018-12-02T20:46:04.352Z,11.57
2018-12-02T20:48:33.302Z,11.55
2018-12-02T20:51:01.835Z,11.59
2018-12-02T20:53:31.413Z,11.57
2018-12-02T20:55:59.878Z,11.56
2018-12-02T20:58:29.150Z,11.64
2018-12-02T21:00:57.913Z,11.50
2018-12-02T21:03:29.391Z,11.53
2018-12-02T21:06:03.225Z,11.48
2018-12-02T21:08:31.978Z,11.43
2018-12-02T21:11:01.036Z,11.41
2018-12-02T21:13:29.481Z,11.46
2018-12-02T21:15:59.187Z,11.48
2018-12-02T21:18:29.278Z,11.49
2018-12-02T21:20:58.633Z,11.49
2018-12-02T21:23:28.291Z,11.53
2018-12-02T21:25:57.963Z,11.51
2018-12-02T21:28:26.682Z,11.53
2018-12-02T21:30:55.028Z,11.52
2018-12-02T21:33:23.365Z,11.59
2018-12-02T21:35:52.080Z,11.59
2018-12-02T21:38:20.410Z,11.54
2018-12-02T21:40:48.773Z,11.57
2018-12-02T21:43:17.405Z,11.56
2018-12-02T21:45:46.921Z,11.60
2018-12-02T21:48:17.517Z,11.61
2018-12-02T21:50:48.973Z,11.55
2018-12-02T21:53:17.826Z,11.59
2018-12-02T21:55:47.870Z,11.57
2018-12-02T21:58:17.476Z,11.57
2018-12-02T22:00:50.372Z,11.56
2018-12-02T22:03:21.342Z,11.61
2018-12-02T22:05:50.337Z,11.68
2018-12-02T22:08:19.710Z,11.67
2018-12-02T22:10:49.545Z,11.69
2018-12-02T22:13:22.336Z,11.61
2018-12-02T22:15:51.087Z,11.68
2018-12-02T22:18:20.582Z,11.73
2018-12-02T22:20:50.279Z,11.72
2018-12-02T22:23:19.795Z,11.73
2018-12-02T22:25:48.786Z,11.72
2018-12-02T22:28:18.877Z,11.73
2018-12-02T22:30:47.752Z,11.74
2018-12-02T22:33:16.174Z,11.74
2018-12-02T22:35:44.527Z,11.73
2018-12-02T22:38:12.866Z,11.73
2018-12-02T22:40:41.198Z,11.71
2018-12-02T22:43:09.501Z,11.72
2018-12-02T22:45:37.809Z,11.76
2018-12-02T22:48:06.234Z,11.71
2018-12-02T22:50:34.573Z,11.72
2018-12-02T22:53:02.915Z,11.70
2018-12-02T22:55:31.245Z,11.68
2018-12-02T22:58:00.673Z,11.64
2018-12-02T23:00:36.293Z,11.57
2018-12-02T23:03:10.236Z,11.54
2018-12-02T23:05:39.589Z,11.52
2018-12-02T23:08:08.070Z,11.44
2018-12-02T23:10:36.503Z,11.36
2018-12-02T23:13:05.598Z,11.29
2018-12-02T23:15:33.993Z,11.28
2018-12-02T23:18:04.529Z,11.28
2018-12-02T23:20:33.619Z,11.21
2018-12-02T23:23:02.200Z,11.22
2018-12-02T23:25:30.812Z,11.14
2018-12-02T23:27:59.947Z,11.17
2018-12-02T23:30:28.786Z,11.20
2018-12-02T23:32:57.417Z,11.16
2018-12-02T23:35:26.477Z,11.07
2018-12-02T23:37:56.086Z,11.05
2018-12-02T23:40:25.480Z,11.03
2018-12-02T23:42:53.798Z,10.96
2018-12-02T23:45:22.126Z,10.94
2018-12-02T23:47:50.459Z,10.90
2018-12-02T23:50:21.100Z,10.87
2018-12-02T23:52:49.954Z,10.86
2018-12-02T23:55:19.649Z,10.85
2018-12-02T23:57:48.450Z,10.90
